• Join FlightAware (Why Join?)
  • Login
  • US Flag 
Rudolph Flight #1: Arrived! 
08:04PM EST


 

Airport Tracker/Info


-or-


 

Live Flight TrackerFlight Track Log ✈ UAL1051 ✈ 19-Aug-2014 ✈ KIAH - KLAX

Flight Track Log - Related Links

Times and Time Zones

All times are in EDT time to prevent confusion due to time zone crossing. See the UAL1051 flight status page for this flight to view local times or setup timezone preferences in your user account.

Time Position Orientation Groundspeed Altitude Reporting Facility
EDT Latitude Longitude Course Direction KTS MPH feet Rate Location/Type
04:04PM 29.9528 -95.3375 218° Southwest 167 192 1,000  Level Houston Center
04:05PM 29.9114 -95.3744 218° Southwest 233 268 2,800 1,800 Climbing Houston Center
04:05PM 29.8925 -95.4144 241° Southwest 254 292 4,000 1,980 Climbing Houston Center
04:06PM 29.8833 -95.4442 250° West 238 274 4,900 2,520 Climbing Houston Center
04:06PM 29.8728 -95.4964 257° West 264 304 6,600 2,700 Climbing Houston Center
04:07PM 29.8675 -95.5281 259° West 264 304 7,700 2,760 Climbing Houston Center
04:07PM 29.8653 -95.5986 268° West 277 319 9,700 2,700 Climbing Houston Center
04:08PM 29.8631 -95.6342 266° West 275 316 10,500 1,260 Climbing Houston Center
04:08PM 29.8592 -95.6956 266° West 330 380 11,000 1,200 Climbing Houston Center
04:09PM 29.8589 -95.7378 270° West 318 366 11,800 1,920 Climbing Houston Center
04:10PM 29.8978 -95.8381 294° West 354 407 13,900 1,920 Climbing Houston Center
04:11PM 29.9672 -95.9267 312° West 370 426 15,900 960 Climbing Houston Center
04:12PM 30.0281 -96.0228 306° West 375 432 16,000 1,140 Climbing Houston Center
04:13PM 30.0636 -96.1614 287° West 378 435 18,300 1,860 Climbing Houston Center
04:14PM 30.0672 -96.2833 272° West 382 440 19,900 1,500 Climbing Houston Center
04:15PM 30.0694 -96.4100 271° West 394 453 21,500 1,380 Climbing Houston Center
04:16PM 30.0964 -96.5375 284° West 407 468 22,800 1,920 Climbing Houston Center
04:17PM 30.1244 -96.6861 282° West 409 471 25,600 1,980 Climbing Houston Center
04:18PM 30.1506 -96.8086 284° West 397 457 27,000 1,020 Climbing Houston Center
04:19PM 30.1758 -96.9367 283° West 407 468 27,800 660 Climbing Houston Center
04:20PM 30.2033 -97.0719 283° West 426 490 28,400 540 Climbing Houston Center
04:21PM 30.2308 -97.2150 283° West 449 517 29,000 600 Climbing Houston Center
04:22PM 30.2606 -97.3631 283° West 464 534 29,700 960 Climbing Houston Center
04:23PM 30.2953 -97.5444 283° West 473 544 31,000 600 Climbing Houston Center
04:24PM 30.3250 -97.6928 283° West 473 544 31,000 420 Level Houston Center
04:25PM 30.3525 -97.8406 282° West 472 543 31,900 960 Climbing Houston Center
04:26PM 30.3811 -97.9864 283° West 467 537 33,000 960 Climbing Houston Center
04:27PM 30.4089 -98.1294 283° West 459 528 34,000 480 Climbing Houston Center
04:29PM 30.4394 -98.2756 284° West 461 531 34,000  Level Houston Center
04:30PM 30.4694 -98.4222 283° West 465 535 34,000  Level Houston Center
04:31PM 30.5078 -98.6031 284° West 477 549 34,000  Level Houston Center
04:32PM 30.5381 -98.7544 283° West 480 552 34,000  Level Houston Center
04:33PM 30.5678 -98.9050 283° West 480 552 34,000  Level Houston Center
04:34PM 30.5983 -99.0544 283° West 478 550 34,000  Level Houston Center
04:35PM 30.6325 -99.2258 283° West 470 541 34,000  Level Houston Center
04:36PM 30.6622 -99.3731 283° West 470 541 34,000  Level Houston Center
04:37PM 30.6900 -99.5197 282° West 469 540 34,000  Level Houston Center
04:38PM 30.7178 -99.6644 283° West 466 536 34,000  Level Houston Center
04:39PM 30.7467 -99.8097 283° West 465 535 34,000  Level Houston Center
04:40PM 30.7797 -99.9853 282° West 466 536 34,000  Level Houston Center
04:41PM 30.8083 -100.1314 283° West 466 536 34,000 -60 Level Houston Center
04:42PM 30.8353 -100.2761 282° West 465 535 33,900  Descending Houston Center
04:43PM 30.8619 -100.4222 282° West 465 535 34,000  Climbing Houston Center
04:44PM 30.8894 -100.5683 282° West 465 535 34,000 -60 Level Houston Center
04:45PM 30.9225 -100.7436 282° West 465 535 33,900 -60 Descending Houston Center
04:46PM 30.9489 -100.8892 282° West 465 535 33,900  Level Houston Center
04:47PM 30.9750 -101.0364 282° West 465 535 34,000  Climbing Houston Center
04:48PM 31.0017 -101.1822 282° West 464 534 34,000  Level Houston Center
04:49PM 31.0283 -101.3311 282° West 463 533 34,000  Level Houston Center
04:50PM 31.0556 -101.4781 282° West 463 533 34,000  Level Houston Center
04:51PM 31.0861 -101.6550 281° West 463 533 34,000  Level Houston Center
04:52PM 31.1119 -101.8008 282° West 463 533 34,000 -60 Level Houston Center
04:53PM 31.1383 -101.9492 282° West 463 533 33,900  Descending Houston Center
04:54PM 31.1633 -102.0964 281° West 463 533 34,000  Climbing Houston Center
04:55PM 31.1878 -102.2467 281° West 463 533 34,000 -60 Level Houston Center
04:56PM 31.2125 -102.4069 280° West 479 551 33,900  Descending Houston Center
04:58PM 31.2403 -102.5536 283° West 465 535 34,000  Climbing Houston Center
04:59PM 31.2650 -102.7008 281° West 464 534 34,000  Level Houston Center
05:00PM 31.2944 -102.8786 281° West 464 534 34,000  Level Houston Center
05:01PM 31.3181 -103.0267 281° West 464 534 34,000 -60 Level Houston Center
05:02PM 31.3433 -103.1747 281° West 464 534 33,900  Descending Houston Center
05:03PM 31.3658 -103.3225 280° West 464 534 34,000  Climbing Houston Center
05:04PM 31.3964 -103.5025 281° West 464 534 34,000  Level Albuquerque Center
05:05PM 31.4200 -103.6514 281° West 465 535 34,000  Level Albuquerque Center
05:06PM 31.4467 -103.8058 281° West 465 535 34,000  Level Albuquerque Center
05:07PM 31.4700 -103.9542 280° West 465 535 34,000 -60 Level Albuquerque Center
05:08PM 31.4933 -104.1017 281° West 465 535 33,900 -60 Descending Albuquerque Center
05:09PM 31.5208 -104.2789 280° West 465 535 33,900  Level Albuquerque Center
05:10PM 31.5436 -104.4269 280° West 465 535 34,000  Climbing Albuquerque Center
05:11PM 31.5669 -104.5728 281° West 464 534 34,000  Level Albuquerque Center
05:12PM 31.5889 -104.7203 280° West 463 533 34,000  Level Albuquerque Center
05:13PM 31.6117 -104.8672 280° West 463 533 34,000  Level Albuquerque Center
05:14PM 31.6339 -105.0167 280° West 463 533 34,000 -60 Level Albuquerque Center
05:15PM 31.6600 -105.1950 280° West 464 534 33,900  Descending Albuquerque Center
05:16PM 31.6819 -105.3408 280° West 463 533 34,000  Climbing Albuquerque Center
05:17PM 31.7028 -105.4894 279° West 463 533 34,000  Level Albuquerque Center
05:18PM 31.7242 -105.6381 280° West 463 533 34,000  Level Albuquerque Center
05:19PM 31.7458 -105.7872 280° West 464 534 34,000 -60 Level Albuquerque Center
05:20PM 31.7675 -105.9369 280° West 465 535 33,900  Descending Albuquerque Center
05:21PM 31.7933 -106.1158 280° West 465 535 34,000  Climbing Albuquerque Center
05:22PM 31.8147 -106.2631 280° West 463 533 34,000 -60 Level Albuquerque Center
05:23PM 31.8286 -106.4186 276° West 472 543 33,900  Descending Albuquerque Center
05:24PM 31.8569 -106.5733 282° West 471 542 34,000  Climbing Albuquerque Center
05:26PM 31.8633 -106.7236 273° West 464 534 33,900  Descending Albuquerque Center
05:27PM 31.8911 -106.8722 282° West 465 535 34,000  Climbing Albuquerque Center
05:28PM 31.9331 -107.0161 289° West 465 535 33,900 -60 Descending Albuquerque Center
05:29PM 31.9739 -107.1611 288° West 465 535 33,900  Level Albuquerque Center
05:30PM 32.0156 -107.3050 289° West 465 535 34,000  Climbing Albuquerque Center
05:31PM 32.0656 -107.4789 289° West 465 535 34,000  Level Albuquerque Center
05:32PM 32.1081 -107.6236 289° West 464 534 34,000 -60 Level Albuquerque Center
05:33PM 32.1494 -107.7689 289° West 464 534 33,900  Descending Albuquerque Center
05:34PM 32.2122 -107.9028 299° West 464 534 34,000  Climbing Albuquerque Center
05:35PM 32.2794 -108.0347 301° West 464 534 33,900  Descending Albuquerque Center
05:36PM 32.3469 -108.1664 301° West 464 534 34,000  Climbing Albuquerque Center
05:37PM 32.4169 -108.2947 303° West 464 534 34,000  Level Albuquerque Center
05:38PM 32.4817 -108.4297 300° West 465 535 34,000  Level Albuquerque Center
05:39PM 32.5431 -108.6000 293° West 465 535 34,000  Level Albuquerque Center
05:40PM 32.6022 -108.7383 297° West 466 536 34,000  Level Albuquerque Center
05:41PM 32.6608 -108.8764 297° West 466 536 34,000 120 Level Albuquerque Center
05:42PM 32.7153 -109.0156 295° West 467 537 34,300 720 Climbing Albuquerque Center
05:43PM 32.7667 -109.1561 294° West 453 521 35,600 780 Climbing Albuquerque Center
05:44PM 32.8222 -109.2922 296° West 451 519 36,000 180 Climbing Albuquerque Center
05:45PM 32.8756 -109.4297 295° West 451 519 36,000  Level Albuquerque Center
05:46PM 32.9297 -109.5656 295° West 453 521 36,000  Level Albuquerque Center
05:47PM 32.9822 -109.6989 295° West 449 517 36,000  Level Albuquerque Center
05:48PM 33.0461 -109.8589 296° West 448 516 36,000  Level Albuquerque Center
05:49PM 33.0994 -109.9919 296° West 447 514 36,000  Level Albuquerque Center
05:50PM 33.1511 -110.1256 295° West 447 514 36,000  Level Albuquerque Center
05:51PM 33.2094 -110.2572 298° West 447 514 36,000  Level Albuquerque Center
05:52PM 33.2894 -110.3753 309° West 451 519 36,000  Level Albuquerque Center
05:53PM 33.3747 -110.4919 311° West 460 529 36,000  Level Albuquerque Center
05:54PM 33.4431 -110.6194 303° West 459 528 36,000  Level Albuquerque Center
05:55PM 33.4750 -110.7906 283° West 452 520 36,000  Level Albuquerque Center
05:56PM 33.4758 -110.9389 270° West 443 510 36,000  Level Albuquerque Center
05:57PM 33.4769 -111.0856 271° West 442 509 36,000  Level Albuquerque Center
05:58PM 33.4747 -111.2344 269° West 443 510 36,000  Level Albuquerque Center
06:00PM 33.4733 -111.3844 269° West 446 513 36,000  Level Albuquerque Center
06:01PM 33.4722 -111.5333 270° West 447 514 36,000  Level Albuquerque Center
06:02PM 33.4697 -111.7136 269° West 448 516 36,000  Level Albuquerque Center
06:03PM 33.4678 -111.8644 269° West 448 516 36,000  Level Albuquerque Center
06:04PM 33.4658 -112.0136 269° West 448 516 36,000  Level Albuquerque Center
06:05PM 33.4639 -112.1633 269° West 448 516 36,000  Level Albuquerque Center
06:06PM 33.4619 -112.3128 269° West 448 516 36,000  Level Albuquerque Center
06:07PM 33.4594 -112.4606 269° West 447 514 36,000  Level Albuquerque Center
06:08PM 33.4575 -112.6256 269° West 444 511 36,000  Level Albuquerque Center
06:10PM 33.4836 -112.9131 276° West 451 519 36,000  Level Los Angeles Center
06:11PM 33.5347 -113.0514 294° West 452 520 36,000  Level Albuquerque Center
06:12PM 33.5850 -113.1897 294° West 452 520 36,000  Level Albuquerque Center
06:13PM 33.6389 -113.3419 293° West 452 520 36,000  Level Albuquerque Center
06:14PM 33.6867 -113.4808 292° West 452 520 36,000  Level Albuquerque Center
06:15PM 33.7361 -113.6211 293° West 452 520 36,000  Level Albuquerque Center
06:16PM 33.7853 -113.7611 293° West 453 521 36,000  Level Albuquerque Center
06:17PM 33.8447 -113.9283 293° West 453 521 36,000  Level Albuquerque Center
06:18PM 33.8850 -114.0511 292° West 453 521 36,000 -60 Level Los Angeles Center
06:19PM 33.9325 -114.1886 293° West 452 520 35,900 -60 Descending Los Angeles Center
06:20PM 33.9814 -114.3294 293° West 452 520 35,900 -300 Level Los Angeles Center
06:21PM 34.0319 -114.5008 290° West 452 520 35,400 -840 Descending Los Angeles Center
06:22PM 34.0386 -114.6436 273° West 434 499 34,200 -780 Descending Los Angeles Center
06:23PM 34.0511 -114.7894 276° West 434 499 33,900 -120 Descending Los Angeles Center
06:24PM 34.0606 -114.9372 274° West 437 503 34,000  Climbing Los Angeles Center
06:25PM 34.0697 -115.0819 274° West 436 502 34,000  Level Los Angeles Center
06:26PM 34.0792 -115.2300 274° West 439 505 34,000 -60 Level Los Angeles Center
06:27PM 34.0906 -115.4050 275° West 439 505 33,900  Descending Los Angeles Center
06:28PM 34.0992 -115.5508 274° West 439 505 34,000  Climbing Los Angeles Center
06:29PM 34.1086 -115.6967 275° West 439 505 33,900  Descending Los Angeles Center
06:30PM 34.1019 -115.8383 267° West 437 503 34,000 -60 Climbing Los Angeles Center
06:31PM 34.0817 -115.9794 260° West 433 498 33,800 -720 Descending Los Angeles Center
06:32PM 34.0625 -116.1142 260° West 423 487 32,600 -1,800 Descending Los Angeles Center
06:33PM 34.0392 -116.2686 260° West 410 472 30,100 -2,100 Descending Los Angeles Center
06:35PM 34.0206 -116.3867 259° West 384 442 28,300 -1,800 Descending Los Angeles Center
06:36PM 34.0039 -116.5067 261° West 373 429 26,500 -1,860 Descending Los Angeles Center
06:37PM 33.9947 -116.6261 265° West 365 420 24,500 -1,920 Descending Los Angeles Center
06:38PM 33.9833 -116.7569 264° West 362 417 22,600 -1,860 Descending Los Angeles Center
06:39PM 33.9728 -116.8797 264° West 351 404 20,700 -1,920 Descending Los Angeles Center
06:40PM 33.9631 -117.0067 265° West 357 411 18,700 -2,040 Descending Los Angeles Center
06:41PM 33.9500 -117.1167 262° West 342 394 16,900 -1,440 Descending Southern California TRACON
06:42PM 33.9500 -117.2167 270° West 301 346 16,100 -780 Descending Southern California TRACON
06:43PM 33.9333 -117.3000 256° West 294 338 15,400 -960 Descending Southern California TRACON
06:44PM 33.9500 -117.4000 281° West 296 341 14,200 -1,260 Descending Southern California TRACON
06:45PM 33.9667 -117.5000 281° West 284 327 12,900 -1,200 Descending Southern California TRACON
06:46PM 34.0000 -117.5667 301° West 277 319 11,800 -1,200 Descending Southern California TRACON
06:47PM 34.0167 -117.6500 284° West 251 289 10,500 -1,200 Descending Southern California TRACON
06:48PM 34.0000 -117.7333 256° West 231 266 9,500 -1,080 Descending Southern California TRACON
06:49PM 34.0000 -117.8167 270° West 231 266 8,400 -1,200 Descending Southern California TRACON
06:50PM 33.9833 -117.8833 253° West 218 251 7,200 -1,140 Descending Southern California TRACON
06:51PM 33.9833 -117.9500 270° West 200 230 6,200 -960 Descending Southern California TRACON
06:52PM 33.9667 -118.0167 253° West 198 228 5,300 -660 Descending Southern California TRACON
06:53PM 33.9667 -118.0833 270° West 195 224 4,900 -780 Descending Southern California TRACON
06:54PM 33.9667 -118.1500 270° West 197 227 3,800 -960 Descending Southern California TRACON
06:54PM 33.9583 -118.1828 253° West 196 226 3,400 -960 Descending Los Angeles Center
06:55PM 33.9519 -118.2481 263° West 196 226 2,300 -1,020 Descending Los Angeles Center
06:56PM 33.9456 -118.3169 264° West 183 211 1,300 -840 Descending Los Angeles Center
06:57PM 33.9403 -118.3628 262° West 156 180 600 -540 Descending Los Angeles Center
06:58PM 33.9500 -118.4039 286° West 151 174 200 -420 Descending Los Angeles Center
07:00PM 33.9425 -118.4081 270° West  Level Estimated